sensor_id;sensor_type;location;lat;lon;timestamp;pressure;altitude;pressure_sealevel;temperature;humidity
20077;BME280;12348;42.710;23.378;2023-06-14T00:02:24;94834.19;;;16.55;100.00
20077;BME280;12348;42.710;23.378;2023-06-14T00:04:51;94836.25;;;16.58;100.00
20077;BME280;12348;42.710;23.378;2023-06-14T00:07:18;94838.50;;;16.56;100.00
20077;BME280;12348;42.710;23.378;2023-06-14T00:09:45;94840.44;;;16.56;100.00
20077;BME280;12348;42.710;23.378;2023-06-14T00:12:12;94839.28;;;16.57;100.00
20077;BME280;12348;42.710;23.378;2023-06-14T00:14:40;94830.00;;;16.58;100.00
20077;BME280;12348;42.710;23.378;2023-06-14T00:17:08;94825.97;;;16.43;100.00
20077;BME280;12348;42.710;23.378;2023-06-14T00:19:35;94829.44;;;16.52;100.00
20077;BME280;12348;42.710;23.378;2023-06-14T00:22:01;94826.72;;;16.52;100.00
20077;BME280;12348;42.710;23.378;2023-06-14T00:24:28;94822.16;;;16.44;100.00
20077;BME280;12348;42.710;23.378;2023-06-14T00:26:55;94826.81;;;16.43;100.00
20077;BME280;12348;42.710;23.378;2023-06-14T00:29:22;94820.22;;;16.44;100.00
20077;BME280;12348;42.710;23.378;2023-06-14T00:31:50;94824.28;;;16.38;100.00
20077;BME280;12348;42.710;23.378;2023-06-14T00:34:18;94825.06;;;16.39;100.00
20077;BME280;12348;42.710;23.378;2023-06-14T00:36:45;94820.53;;;16.43;100.00
20077;BME280;12348;42.710;23.378;2023-06-14T00:39:12;94813.53;;;16.42;100.00
20077;BME280;12348;42.710;23.378;2023-06-14T00:58:55;94804.97;;;16.52;100.00
20077;BME280;12348;42.710;23.378;2023-06-14T01:01:22;94801.09;;;16.53;100.00
20077;BME280;12348;42.710;23.378;2023-06-14T01:03:49;94809.47;;;16.48;100.00
20077;BME280;12348;42.710;23.378;2023-06-14T01:06:22;94814.25;;;16.51;100.00
20077;BME280;12348;42.710;23.378;2023-06-14T01:09:03;94807.31;;;16.41;100.00
20077;BME280;12348;42.710;23.378;2023-06-14T01:11:38;94811.59;;;16.42;100.00
20077;BME280;12348;42.710;23.378;2023-06-14T01:14:07;94815.59;;;16.45;100.00
20077;BME280;12348;42.710;23.378;2023-06-14T01:16:36;94814.00;;;16.44;100.00
20077;BME280;12348;42.710;23.378;2023-06-14T01:19:05;94804.94;;;16.40;100.00
20077;BME280;12348;42.710;23.378;2023-06-14T01:21:32;94808.09;;;16.42;100.00
20077;BME280;12348;42.710;23.378;2023-06-14T01:27:30;94810.16;;;16.45;100.00
20077;BME280;12348;42.710;23.378;2023-06-14T01:29:58;94811.47;;;16.39;100.00
20077;BME280;12348;42.710;23.378;2023-06-14T01:32:30;94814.19;;;16.39;100.00
20077;BME280;12348;42.710;23.378;2023-06-14T01:38:26;94808.88;;;16.42;100.00
20077;BME280;12348;42.710;23.378;2023-06-14T01:40:55;94808.34;;;16.49;100.00
20077;BME280;12348;42.710;23.378;2023-06-14T01:43:25;94805.19;;;16.47;100.00
20077;BME280;12348;42.710;23.378;2023-06-14T01:45:54;94805.09;;;16.56;100.00
20077;BME280;12348;42.710;23.378;2023-06-14T01:48:22;94792.03;;;16.49;100.00
20077;BME280;12348;42.710;23.378;2023-06-14T01:50:49;94802.00;;;16.45;100.00
20077;BME280;12348;42.710;23.378;2023-06-14T01:53:16;94803.00;;;16.40;100.00
20077;BME280;12348;42.710;23.378;2023-06-14T01:55:43;94807.44;;;16.24;100.00
20077;BME280;12348;42.710;23.378;2023-06-14T01:58:14;94806.13;;;16.30;100.00
20077;BME280;12348;42.710;23.378;2023-06-14T02:00:42;94804.19;;;16.31;100.00
20077;BME280;12348;42.710;23.378;2023-06-14T02:03:09;94808.19;;;16.33;100.00
20077;BME280;12348;42.710;23.378;2023-06-14T02:05:37;94818.25;;;16.33;100.00
20077;BME280;12348;42.710;23.378;2023-06-14T02:08:04;94815.72;;;16.28;100.00
20077;BME280;12348;42.710;23.378;2023-06-14T02:10:31;94814.69;;;16.20;100.00
20077;BME280;12348;42.710;23.378;2023-06-14T02:12:58;94822.97;;;16.23;100.00
20077;BME280;12348;42.710;23.378;2023-06-14T02:15:24;94827.16;;;16.21;100.00
20077;BME280;12348;42.710;23.378;2023-06-14T02:18:00;94833.50;;;16.25;100.00
20077;BME280;12348;42.710;23.378;2023-06-14T02:20:28;94836.88;;;16.22;100.00
20077;BME280;12348;42.710;23.378;2023-06-14T02:22:55;94838.16;;;16.24;100.00
20077;BME280;12348;42.710;23.378;2023-06-14T02:25:22;94839.25;;;16.23;100.00
20077;BME280;12348;42.710;23.378;2023-06-14T02:27:49;94830.31;;;16.23;100.00
20077;BME280;12348;42.710;23.378;2023-06-14T02:30:15;94834.19;;;16.22;100.00
20077;BME280;12348;42.710;23.378;2023-06-14T02:32:42;94834.13;;;16.10;100.00
20077;BME280;12348;42.710;23.378;2023-06-14T02:35:10;94843.19;;;16.14;100.00
20077;BME280;12348;42.710;23.378;2023-06-14T02:37:38;94841.94;;;16.11;100.00
20077;BME280;12348;42.710;23.378;2023-06-14T02:40:06;94846.22;;;16.12;100.00
20077;BME280;12348;42.710;23.378;2023-06-14T02:42:34;94836.00;;;16.09;100.00
20077;BME280;12348;42.710;23.378;2023-06-14T02:45:01;94838.81;;;16.00;100.00
20077;BME280;12348;42.710;23.378;2023-06-14T02:47:29;94845.97;;;16.05;100.00
20077;BME280;12348;42.710;23.378;2023-06-14T02:49:56;94848.88;;;16.00;100.00
20077;BME280;12348;42.710;23.378;2023-06-14T02:52:24;94840.38;;;16.02;100.00
20077;BME280;12348;42.710;23.378;2023-06-14T02:54:51;94834.69;;;15.94;100.00
20077;BME280;12348;42.710;23.378;2023-06-14T02:57:19;94839.31;;;15.94;100.00
20077;BME280;12348;42.710;23.378;2023-06-14T02:59:46;94841.47;;;15.88;100.00
20077;BME280;12348;42.710;23.378;2023-06-14T03:02:12;94838.09;;;15.91;100.00
20077;BME280;12348;42.710;23.378;2023-06-14T03:04:39;94844.47;;;15.87;100.00
20077;BME280;12348;42.710;23.378;2023-06-14T03:07:10;94844.34;;;15.83;100.00
20077;BME280;12348;42.710;23.378;2023-06-14T03:09:39;94842.63;;;15.79;100.00
20077;BME280;12348;42.710;23.378;2023-06-14T03:12:06;94846.63;;;15.81;100.00
20077;BME280;12348;42.710;23.378;2023-06-14T03:14:34;94855.28;;;15.74;100.00
20077;BME280;12348;42.710;23.378;2023-06-14T03:17:02;94853.56;;;15.70;100.00
20077;BME280;12348;42.710;23.378;2023-06-14T03:19:30;94854.13;;;15.75;100.00
20077;BME280;12348;42.710;23.378;2023-06-14T03:21:57;94856.34;;;15.82;100.00
20077;BME280;12348;42.710;23.378;2023-06-14T03:24:24;94860.31;;;15.85;100.00
20077;BME280;12348;42.710;23.378;2023-06-14T03:26:54;94854.47;;;15.74;100.00
20077;BME280;12348;42.710;23.378;2023-06-14T03:29:20;94857.81;;;15.80;100.00
20077;BME280;12348;42.710;23.378;2023-06-14T03:31:58;94856.03;;;15.84;100.00
20077;BME280;12348;42.710;23.378;2023-06-14T03:34:25;94853.13;;;15.89;100.00
20077;BME280;12348;42.710;23.378;2023-06-14T03:36:52;94858.44;;;16.06;100.00
20077;BME280;12348;42.710;23.378;2023-06-14T03:39:19;94859.34;;;16.10;100.00
20077;BME280;12348;42.710;23.378;2023-06-14T03:41:45;94866.84;;;16.13;100.00
20077;BME280;12348;42.710;23.378;2023-06-14T03:44:15;94866.13;;;16.25;100.00
20077;BME280;12348;42.710;23.378;2023-06-14T03:46:43;94862.97;;;16.35;100.00
20077;BME280;12348;42.710;23.378;2023-06-14T03:49:10;94871.25;;;16.39;100.00
20077;BME280;12348;42.710;23.378;2023-06-14T03:51:37;94863.84;;;16.48;100.00
20077;BME280;12348;42.710;23.378;2023-06-14T03:54:05;94859.59;;;16.59;100.00
20077;BME280;12348;42.710;23.378;2023-06-14T03:56:31;94860.25;;;16.56;100.00
20077;BME280;12348;42.710;23.378;2023-06-14T03:58:58;94865.06;;;16.71;100.00
20077;BME280;12348;42.710;23.378;2023-06-14T04:01:26;94862.66;;;16.91;100.00
20077;BME280;12348;42.710;23.378;2023-06-14T04:03:55;94864.69;;;16.94;100.00
20077;BME280;12348;42.710;23.378;2023-06-14T04:06:22;94862.94;;;17.10;100.00
20077;BME280;12348;42.710;23.378;2023-06-14T04:08:50;94868.56;;;16.93;100.00
20077;BME280;12348;42.710;23.378;2023-06-14T04:11:17;94866.78;;;17.09;100.00
20077;BME280;12348;42.710;23.378;2023-06-14T04:13:44;94864.09;;;17.22;100.00
20077;BME280;12348;42.710;23.378;2023-06-14T04:16:12;94868.28;;;17.19;100.00
20077;BME280;12348;42.710;23.378;2023-06-14T04:18:40;94863.06;;;17.51;100.00
20077;BME280;12348;42.710;23.378;2023-06-14T04:21:07;94862.97;;;17.72;100.00
20077;BME280;12348;42.710;23.378;2023-06-14T04:23:34;94860.72;;;17.86;100.00
20077;BME280;12348;42.710;23.378;2023-06-14T04:26:01;94863.56;;;17.89;100.00
20077;BME280;12348;42.710;23.378;2023-06-14T04:28:28;94865.34;;;17.73;100.00
20077;BME280;12348;42.710;23.378;2023-06-14T04:30:55;94868.06;;;17.73;100.00
20077;BME280;12348;42.710;23.378;2023-06-14T04:33:22;94871.25;;;18.12;100.00
20077;BME280;12348;42.710;23.378;2023-06-14T04:35:52;94868.00;;;18.34;100.00
20077;BME280;12348;42.710;23.378;2023-06-14T04:38:19;94864.94;;;18.92;100.00
20077;BME280;12348;42.710;23.378;2023-06-14T04:40:50;94858.22;;;19.49;100.00
20077;BME280;12348;42.710;23.378;2023-06-14T04:43:18;94858.28;;;20.00;100.00
20077;BME280;12348;42.710;23.378;2023-06-14T04:45:52;94860.34;;;19.88;100.00
20077;BME280;12348;42.710;23.378;2023-06-14T04:48:20;94862.03;;;20.12;100.00
20077;BME280;12348;42.710;23.378;2023-06-14T04:50:46;94859.19;;;20.59;100.00
20077;BME280;12348;42.710;23.378;2023-06-14T04:53:14;94866.00;;;20.88;100.00
20077;BME280;12348;42.710;23.378;2023-06-14T04:55:42;94862.25;;;20.96;100.00
20077;BME280;12348;42.710;23.378;2023-06-14T04:58:10;94864.75;;;21.47;100.00
20077;BME280;12348;42.710;23.378;2023-06-14T05:00:38;94874.00;;;21.39;100.00
20077;BME280;12348;42.710;23.378;2023-06-14T05:03:07;94872.78;;;21.17;100.00
20077;BME280;12348;42.710;23.378;2023-06-14T05:05:34;94876.72;;;21.39;100.00
20077;BME280;12348;42.710;23.378;2023-06-14T05:08:00;94872.88;;;21.90;100.00
20077;BME280;12348;42.710;23.378;2023-06-14T05:10:28;94878.34;;;21.63;100.00
20077;BME280;12348;42.710;23.378;2023-06-14T05:12:55;94873.63;;;21.64;100.00
20077;BME280;12348;42.710;23.378;2023-06-14T05:15:22;94883.69;;;21.33;100.00
20077;BME280;12348;42.710;23.378;2023-06-14T05:17:51;94885.56;;;21.10;100.00
20077;BME280;12348;42.710;23.378;2023-06-14T05:20:20;94880.03;;;20.87;100.00
20077;BME280;12348;42.710;23.378;2023-06-14T05:22:48;94886.31;;;20.87;100.00
20077;BME280;12348;42.710;23.378;2023-06-14T05:25:18;94888.13;;;20.25;100.00
20077;BME280;12348;42.710;23.378;2023-06-14T05:27:47;94893.66;;;19.93;100.00
20077;BME280;12348;42.710;23.378;2023-06-14T05:30:15;94894.53;;;19.97;100.00
20077;BME280;12348;42.710;23.378;2023-06-14T05:32:42;94897.00;;;20.02;100.00
20077;BME280;12348;42.710;23.378;2023-06-14T05:35:08;94897.16;;;20.45;100.00
20077;BME280;12348;42.710;23.378;2023-06-14T05:37:35;94902.81;;;20.52;100.00
20077;BME280;12348;42.710;23.378;2023-06-14T05:40:03;94899.69;;;20.53;100.00
20077;BME280;12348;42.710;23.378;2023-06-14T05:42:32;94902.09;;;20.04;100.00
20077;BME280;12348;42.710;23.378;2023-06-14T05:45:00;94903.28;;;20.22;100.00
20077;BME280;12348;42.710;23.378;2023-06-14T05:47:27;94901.84;;;19.93;100.00
20077;BME280;12348;42.710;23.378;2023-06-14T05:49:54;94901.56;;;20.14;100.00
20077;BME280;12348;42.710;23.378;2023-06-14T05:52:21;94906.31;;;20.01;100.00
20077;BME280;12348;42.710;23.378;2023-06-14T05:54:47;94912.50;;;20.14;100.00
20077;BME280;12348;42.710;23.378;2023-06-14T05:57:14;94908.47;;;20.43;100.00
20077;BME280;12348;42.710;23.378;2023-06-14T05:59:41;94910.66;;;20.38;100.00
20077;BME280;12348;42.710;23.378;2023-06-14T06:02:09;94907.22;;;20.41;100.00
20077;BME280;12348;42.710;23.378;2023-06-14T06:04:36;94911.78;;;20.52;100.00
20077;BME280;12348;42.710;23.378;2023-06-14T06:07:03;94910.63;;;20.53;100.00
20077;BME280;12348;42.710;23.378;2023-06-14T06:09:30;94918.00;;;21.08;100.00
20077;BME280;12348;42.710;23.378;2023-06-14T06:11:57;94921.16;;;21.10;100.00
20077;BME280;12348;42.710;23.378;2023-06-14T06:14:24;94918.94;;;20.96;100.00
20077;BME280;12348;42.710;23.378;2023-06-14T06:16:51;94917.84;;;21.20;100.00
20077;BME280;12348;42.710;23.378;2023-06-14T06:19:20;94916.06;;;21.50;100.00
20077;BME280;12348;42.710;23.378;2023-06-14T06:21:47;94918.81;;;21.50;100.00
20077;BME280;12348;42.710;23.378;2023-06-14T06:24:15;94915.66;;;21.48;100.00
20077;BME280;12348;42.710;23.378;2023-06-14T06:26:42;94921.78;;;21.42;100.00
20077;BME280;12348;42.710;23.378;2023-06-14T06:29:09;94921.72;;;21.38;100.00
20077;BME280;12348;42.710;23.378;2023-06-14T06:31:36;94929.94;;;21.84;100.00
20077;BME280;12348;42.710;23.378;2023-06-14T06:34:02;94922.97;;;21.64;100.00
20077;BME280;12348;42.710;23.378;2023-06-14T06:36:31;94927.47;;;21.52;100.00
20077;BME280;12348;42.710;23.378;2023-06-14T06:38:57;94933.50;;;21.62;100.00
20077;BME280;12348;42.710;23.378;2023-06-14T06:41:24;94931.28;;;21.28;100.00
20077;BME280;12348;42.710;23.378;2023-06-14T06:43:52;94931.28;;;21.28;100.00
20077;BME280;12348;42.710;23.378;2023-06-14T06:46:19;94930.91;;;21.07;100.00
20077;BME280;12348;42.710;23.378;2023-06-14T06:48:45;94927.22;;;21.61;100.00
20077;BME280;12348;42.710;23.378;2023-06-14T06:51:13;94929.09;;;21.57;100.00
20077;BME280;12348;42.710;23.378;2023-06-14T06:53:45;94934.41;;;21.46;100.00
20077;BME280;12348;42.710;23.378;2023-06-14T06:56:18;94924.66;;;21.72;100.00
20077;BME280;12348;42.710;23.378;2023-06-14T06:58:45;94925.69;;;21.87;100.00
20077;BME280;12348;42.710;23.378;2023-06-14T07:01:12;94922.31;;;22.46;100.00
20077;BME280;12348;42.710;23.378;2023-06-14T07:03:38;94927.66;;;22.36;100.00
20077;BME280;12348;42.710;23.378;2023-06-14T07:06:05;94923.38;;;22.38;100.00
20077;BME280;12348;42.710;23.378;2023-06-14T07:08:32;94932.53;;;21.73;100.00
20077;BME280;12348;42.710;23.378;2023-06-14T07:11:00;94925.94;;;22.01;100.00
20077;BME280;12348;42.710;23.378;2023-06-14T07:13:27;94925.59;;;22.06;100.00
20077;BME280;12348;42.710;23.378;2023-06-14T07:15:54;94924.97;;;22.39;100.00
20077;BME280;12348;42.710;23.378;2023-06-14T07:18:23;94934.63;;;22.56;100.00
20077;BME280;12348;42.710;23.378;2023-06-14T07:20:50;94931.88;;;23.16;100.00
20077;BME280;12348;42.710;23.378;2023-06-14T07:23:17;94916.94;;;24.43;100.00
20077;BME280;12348;42.710;23.378;2023-06-14T07:25:44;94926.97;;;25.96;100.00
20077;BME280;12348;42.710;23.378;2023-06-14T07:28:12;94922.09;;;27.04;100.00
20077;BME280;12348;42.710;23.378;2023-06-14T07:30:39;94921.25;;;27.07;97.29
20077;BME280;12348;42.710;23.378;2023-06-14T07:33:06;94925.78;;;29.36;91.55
20077;BME280;12348;42.710;23.378;2023-06-14T07:35:33;94919.94;;;31.82;70.65
20077;BME280;12348;42.710;23.378;2023-06-14T07:38:00;94910.69;;;33.41;64.93
20077;BME280;12348;42.710;23.378;2023-06-14T07:40:27;94917.94;;;32.97;62.53
20077;BME280;12348;42.710;23.378;2023-06-14T07:42:54;94914.56;;;33.86;61.90
20077;BME280;12348;42.710;23.378;2023-06-14T07:45:22;94918.59;;;33.85;56.93
20077;BME280;12348;42.710;23.378;2023-06-14T07:47:49;94910.38;;;31.83;65.92
20077;BME280;12348;42.710;23.378;2023-06-14T07:50:17;94911.28;;;29.25;74.89
20077;BME280;12348;42.710;23.378;2023-06-14T07:52:43;94923.28;;;29.45;78.11
20077;BME280;12348;42.710;23.378;2023-06-14T07:55:10;94928.28;;;30.12;71.82
20077;BME280;12348;42.710;23.378;2023-06-14T07:57:38;94925.44;;;30.19;74.38
20077;BME280;12348;42.710;23.378;2023-06-14T08:00:06;94932.78;;;31.96;65.87
20077;BME280;12348;42.710;23.378;2023-06-14T08:02:35;94932.19;;;32.70;60.56
20077;BME280;12348;42.710;23.378;2023-06-14T08:05:01;94926.16;;;34.73;53.29
20077;BME280;12348;42.710;23.378;2023-06-14T08:07:28;94943.66;;;35.87;51.78
20077;BME280;12348;42.710;23.378;2023-06-14T08:09:55;94932.16;;;36.94;46.99
20077;BME280;12348;42.710;23.378;2023-06-14T08:12:22;94943.81;;;36.64;45.47
20077;BME280;12348;42.710;23.378;2023-06-14T08:14:48;94949.22;;;35.78;47.60
20077;BME280;12348;42.710;23.378;2023-06-14T08:17:15;94940.94;;;35.31;48.75
20077;BME280;12348;42.710;23.378;2023-06-14T08:19:43;94952.72;;;34.56;50.85
20077;BME280;12348;42.710;23.378;2023-06-14T08:22:10;94953.59;;;30.45;59.84
20077;BME280;12348;42.710;23.378;2023-06-14T08:24:38;94953.13;;;29.38;66.25
20077;BME280;12348;42.710;23.378;2023-06-14T08:27:06;94942.19;;;28.48;67.51
20077;BME280;12348;42.710;23.378;2023-06-14T08:29:33;94946.50;;;29.62;66.69
20077;BME280;12348;42.710;23.378;2023-06-14T08:32:00;94956.44;;;30.17;63.14
20077;BME280;12348;42.710;23.378;2023-06-14T08:34:27;94951.84;;;30.31;64.35
20077;BME280;12348;42.710;23.378;2023-06-14T08:36:55;94951.06;;;30.03;68.61
20077;BME280;12348;42.710;23.378;2023-06-14T08:39:22;94954.06;;;31.50;60.37
20077;BME280;12348;42.710;23.378;2023-06-14T08:41:48;94944.38;;;33.63;54.30
20077;BME280;12348;42.710;23.378;2023-06-14T08:44:17;94941.59;;;33.76;51.01
20077;BME280;12348;42.710;23.378;2023-06-14T08:46:43;94947.38;;;30.84;59.49
20077;BME280;12348;42.710;23.378;2023-06-14T08:49:11;94941.91;;;31.00;58.84
20077;BME280;12348;42.710;23.378;2023-06-14T08:51:39;94933.75;;;31.29;57.93
20077;BME280;12348;42.710;23.378;2023-06-14T08:54:09;94925.69;;;31.75;57.71
20077;BME280;12348;42.710;23.378;2023-06-14T08:56:38;94926.88;;;32.59;57.29
20077;BME280;12348;42.710;23.378;2023-06-14T08:59:07;94926.50;;;33.61;52.46
20077;BME280;12348;42.710;23.378;2023-06-14T09:01:35;94934.25;;;33.82;51.68
20077;BME280;12348;42.710;23.378;2023-06-14T09:04:03;94935.38;;;33.85;51.74
20077;BME280;12348;42.710;23.378;2023-06-14T09:06:31;94932.00;;;34.54;51.51
20077;BME280;12348;42.710;23.378;2023-06-14T09:08:58;94915.97;;;33.10;50.28
20077;BME280;12348;42.710;23.378;2023-06-14T09:11:26;94922.19;;;33.72;50.25
20077;BME280;12348;42.710;23.378;2023-06-14T09:13:53;94920.84;;;34.15;47.59
20077;BME280;12348;42.710;23.378;2023-06-14T09:16:21;94925.75;;;33.86;48.65
20077;BME280;12348;42.710;23.378;2023-06-14T09:18:47;94920.41;;;34.30;48.98
20077;BME280;12348;42.710;23.378;2023-06-14T09:21:15;94921.41;;;31.10;53.23
20077;BME280;12348;42.710;23.378;2023-06-14T09:23:43;94919.38;;;29.74;57.59
20077;BME280;12348;42.710;23.378;2023-06-14T09:26:12;94922.00;;;29.84;57.84
20077;BME280;12348;42.710;23.378;2023-06-14T09:28:42;94918.56;;;30.27;57.80
20077;BME280;12348;42.710;23.378;2023-06-14T09:31:10;94924.50;;;29.44;61.28
20077;BME280;12348;42.710;23.378;2023-06-14T09:33:37;94916.09;;;28.42;63.22
20077;BME280;12348;42.710;23.378;2023-06-14T09:36:04;94916.47;;;27.99;68.25
20077;BME280;12348;42.710;23.378;2023-06-14T09:38:34;94922.31;;;29.29;65.51
20077;BME280;12348;42.710;23.378;2023-06-14T09:41:03;94923.56;;;30.36;61.90
20077;BME280;12348;42.710;23.378;2023-06-14T09:43:30;94913.78;;;30.75;60.84
20077;BME280;12348;42.710;23.378;2023-06-14T09:46:00;94908.69;;;32.54;55.85
20077;BME280;12348;42.710;23.378;2023-06-14T09:48:27;94904.31;;;33.95;50.73
20077;BME280;12348;42.710;23.378;2023-06-14T09:50:55;94898.63;;;34.72;49.45
20077;BME280;12348;42.710;23.378;2023-06-14T09:53:25;94902.47;;;34.87;47.57
20077;BME280;12348;42.710;23.378;2023-06-14T09:55:54;94890.88;;;33.52;48.52
20077;BME280;12348;42.710;23.378;2023-06-14T09:58:26;94894.16;;;34.14;48.75
20077;BME280;12348;42.710;23.378;2023-06-14T10:00:54;94889.44;;;33.31;48.53
20077;BME280;12348;42.710;23.378;2023-06-14T10:03:27;94881.28;;;33.66;52.94
20077;BME280;12348;42.710;23.378;2023-06-14T10:05:55;94885.50;;;34.82;46.87
20077;BME280;12348;42.710;23.378;2023-06-14T10:08:27;94888.22;;;35.29;45.93
20077;BME280;12348;42.710;23.378;2023-06-14T10:10:55;94882.03;;;33.79;46.23
20077;BME280;12348;42.710;23.378;2023-06-14T10:13:23;94878.06;;;30.93;52.01
20077;BME280;12348;42.710;23.378;2023-06-14T10:15:55;94885.25;;;28.78;61.41
20077;BME280;12348;42.710;23.378;2023-06-14T10:18:31;94878.97;;;29.38;65.00
20077;BME280;12348;42.710;23.378;2023-06-14T10:21:05;94870.41;;;28.98;61.77
20077;BME280;12348;42.710;23.378;2023-06-14T10:23:38;94869.75;;;30.70;56.41
20077;BME280;12348;42.710;23.378;2023-06-14T10:26:07;94858.69;;;30.66;55.47
20077;BME280;12348;42.710;23.378;2023-06-14T10:28:37;94858.19;;;30.51;55.48
20077;BME280;12348;42.710;23.378;2023-06-14T10:31:08;94858.78;;;31.42;54.57
20077;BME280;12348;42.710;23.378;2023-06-14T10:33:39;94872.09;;;31.87;52.02
20077;BME280;12348;42.710;23.378;2023-06-14T10:36:24;94860.91;;;31.14;53.96
20077;BME280;12348;42.710;23.378;2023-06-14T10:39:00;94865.09;;;30.19;58.51
20077;BME280;12348;42.710;23.378;2023-06-14T10:41:28;94852.94;;;31.17;59.73
20077;BME280;12348;42.710;23.378;2023-06-14T10:47:00;94858.91;;;30.55;56.91
20077;BME280;12348;42.710;23.378;2023-06-14T10:49:39;94853.38;;;30.95;55.19
20077;BME280;12348;42.710;23.378;2023-06-14T10:52:08;94844.03;;;31.61;54.34
20077;BME280;12348;42.710;23.378;2023-06-14T10:55:05;94849.28;;;31.39;54.86
20077;BME280;12348;42.710;23.378;2023-06-14T10:57:35;94840.63;;;30.98;53.83
20077;BME280;12348;42.710;23.378;2023-06-14T11:00:03;94835.91;;;29.57;61.02
20077;BME280;12348;42.710;23.378;2023-06-14T11:05:31;94831.97;;;30.92;57.97
20077;BME280;12348;42.710;23.378;2023-06-14T11:08:35;94827.66;;;30.28;60.03
20077;BME280;12348;42.710;23.378;2023-06-14T11:11:06;94828.63;;;29.40;61.57
20077;BME280;12348;42.710;23.378;2023-06-14T11:13:34;94822.88;;;29.27;62.69
20077;BME280;12348;42.710;23.378;2023-06-14T11:16:10;94826.47;;;28.93;63.17
20077;BME280;12348;42.710;23.378;2023-06-14T11:18:37;94820.50;;;29.80;63.64
20077;BME280;12348;42.710;23.378;2023-06-14T11:21:05;94821.09;;;29.91;60.99
20077;BME280;12348;42.710;23.378;2023-06-14T11:23:32;94822.38;;;29.86;59.35
20077;BME280;12348;42.710;23.378;2023-06-14T11:25:59;94821.25;;;29.30;60.97
20077;BME280;12348;42.710;23.378;2023-06-14T11:28:35;94803.78;;;28.34;69.61
20077;BME280;12348;42.710;23.378;2023-06-14T11:31:04;94798.69;;;28.97;64.87
20077;BME280;12348;42.710;23.378;2023-06-14T11:33:31;94803.16;;;27.70;69.10
20077;BME280;12348;42.710;23.378;2023-06-14T11:35:58;94806.53;;;27.96;68.23
20077;BME280;12348;42.710;23.378;2023-06-14T11:38:26;94805.19;;;27.03;74.14
20077;BME280;12348;42.710;23.378;2023-06-14T11:40:53;94808.72;;;27.11;72.47
20077;BME280;12348;42.710;23.378;2023-06-14T11:43:19;94802.03;;;27.05;75.47
20077;BME280;12348;42.710;23.378;2023-06-14T11:45:48;94807.13;;;27.69;69.50
20077;BME280;12348;42.710;23.378;2023-06-14T11:48:15;94811.34;;;27.33;69.88
20077;BME280;12348;42.710;23.378;2023-06-14T11:50:42;94794.22;;;26.93;73.86
20077;BME280;12348;42.710;23.378;2023-06-14T11:53:09;94780.75;;;26.98;76.78
20077;BME280;12348;42.710;23.378;2023-06-14T11:55:38;94785.13;;;27.51;72.41
20077;BME280;12348;42.710;23.378;2023-06-14T11:58:06;94783.09;;;27.59;72.85
20077;BME280;12348;42.710;23.378;2023-06-14T12:00:35;94777.00;;;27.82;70.16
20077;BME280;12348;42.710;23.378;2023-06-14T12:03:03;94772.50;;;27.99;70.11
20077;BME280;12348;42.710;23.378;2023-06-14T12:05:30;94772.91;;;27.52;68.10
20077;BME280;12348;42.710;23.378;2023-06-14T12:07:58;94771.66;;;25.96;74.83
20077;BME280;12348;42.710;23.378;2023-06-14T12:10:27;94751.47;;;26.24;75.13
20077;BME280;12348;42.710;23.378;2023-06-14T12:12:58;94759.09;;;26.86;73.96
20077;BME280;12348;42.710;23.378;2023-06-14T12:15:28;94754.59;;;27.17;71.68
20077;BME280;12348;42.710;23.378;2023-06-14T12:17:55;94768.44;;;27.06;70.39
20077;BME280;12348;42.710;23.378;2023-06-14T12:20:22;94750.22;;;27.20;70.13
20077;BME280;12348;42.710;23.378;2023-06-14T12:22:53;94758.88;;;26.52;71.64
20077;BME280;12348;42.710;23.378;2023-06-14T12:25:30;94745.59;;;26.18;76.05
20077;BME280;12348;42.710;23.378;2023-06-14T12:27:59;94737.78;;;25.63;77.55
20077;BME280;12348;42.710;23.378;2023-06-14T12:30:30;94753.16;;;25.64;75.24
20077;BME280;12348;42.710;23.378;2023-06-14T12:32:56;94749.53;;;26.10;75.71
20077;BME280;12348;42.710;23.378;2023-06-14T12:35:23;94743.19;;;26.17;77.62
20077;BME280;12348;42.710;23.378;2023-06-14T12:37:50;94743.25;;;25.99;76.49
20077;BME280;12348;42.710;23.378;2023-06-14T12:40:17;94746.41;;;26.04;75.52
20077;BME280;12348;42.710;23.378;2023-06-14T12:42:45;94734.81;;;26.56;70.16
20077;BME280;12348;42.710;23.378;2023-06-14T12:45:14;94735.22;;;27.17;67.18
20077;BME280;12348;42.710;23.378;2023-06-14T12:47:41;94737.94;;;27.24;66.40
20077;BME280;12348;42.710;23.378;2023-06-14T12:50:07;94736.47;;;27.13;67.76
20077;BME280;12348;42.710;23.378;2023-06-14T12:52:34;94732.56;;;26.15;72.42
20077;BME280;12348;42.710;23.378;2023-06-14T12:55:02;94730.72;;;25.58;75.63
20077;BME280;12348;42.710;23.378;2023-06-14T12:57:29;94726.41;;;25.36;73.79
20077;BME280;12348;42.710;23.378;2023-06-14T12:59:56;94729.09;;;25.68;75.50
20077;BME280;12348;42.710;23.378;2023-06-14T13:02:24;94726.34;;;25.68;74.42
20077;BME280;12348;42.710;23.378;2023-06-14T13:04:51;94729.47;;;25.92;73.85
20077;BME280;12348;42.710;23.378;2023-06-14T13:07:18;94723.94;;;26.02;73.84
20077;BME280;12348;42.710;23.378;2023-06-14T13:09:44;94718.75;;;26.22;72.74
20077;BME280;12348;42.710;23.378;2023-06-14T13:12:11;94715.88;;;26.51;72.29
20077;BME280;12348;42.710;23.378;2023-06-14T13:14:39;94719.09;;;27.12;70.06
20077;BME280;12348;42.710;23.378;2023-06-14T13:17:08;94717.69;;;26.82;71.83
20077;BME280;12348;42.710;23.378;2023-06-14T13:19:36;94726.66;;;26.13;71.81
20077;BME280;12348;42.710;23.378;2023-06-14T13:22:04;94738.59;;;25.38;85.34